sensor_id;sensor_type;location;lat;lon;timestamp;temperature;humidity
59977;DHT22;45837;51.076;3.578;2023-11-21T00:01:35;19.80;65.00
59977;DHT22;45837;51.076;3.578;2023-11-21T00:04:01;19.80;64.80
59977;DHT22;45837;51.076;3.578;2023-11-21T00:06:27;19.80;64.90
59977;DHT22;45837;51.076;3.578;2023-11-21T00:08:53;19.80;64.50
59977;DHT22;45837;51.076;3.578;2023-11-21T00:11:18;19.80;64.70
59977;DHT22;45837;51.076;3.578;2023-11-21T00:13:44;19.70;64.80
59977;DHT22;45837;51.076;3.578;2023-11-21T00:16:11;19.70;64.80
59977;DHT22;45837;51.076;3.578;2023-11-21T00:18:36;19.70;64.80
59977;DHT22;45837;51.076;3.578;2023-11-21T00:21:02;19.80;64.80
59977;DHT22;45837;51.076;3.578;2023-11-21T00:23:29;19.70;64.60
59977;DHT22;45837;51.076;3.578;2023-11-21T00:25:54;19.70;64.80
59977;DHT22;45837;51.076;3.578;2023-11-21T00:28:20;19.70;65.10
59977;DHT22;45837;51.076;3.578;2023-11-21T00:30:45;19.70;64.70
59977;DHT22;45837;51.076;3.578;2023-11-21T00:33:11;19.70;64.90
59977;DHT22;45837;51.076;3.578;2023-11-21T00:35:37;19.70;65.00
59977;DHT22;45837;51.076;3.578;2023-11-21T00:38:02;19.70;65.10
59977;DHT22;45837;51.076;3.578;2023-11-21T00:40:28;19.70;65.20
59977;DHT22;45837;51.076;3.578;2023-11-21T00:42:54;19.70;64.80
59977;DHT22;45837;51.076;3.578;2023-11-21T00:45:21;19.70;65.60
59977;DHT22;45837;51.076;3.578;2023-11-21T00:47:47;19.60;65.00
59977;DHT22;45837;51.076;3.578;2023-11-21T00:50:12;19.60;65.00
59977;DHT22;45837;51.076;3.578;2023-11-21T00:52:38;19.60;65.00
59977;DHT22;45837;51.076;3.578;2023-11-21T00:55:04;19.60;65.00
59977;DHT22;45837;51.076;3.578;2023-11-21T00:57:32;19.60;65.10
59977;DHT22;45837;51.076;3.578;2023-11-21T00:59:58;19.60;65.00
59977;DHT22;45837;51.076;3.578;2023-11-21T01:02:24;19.60;64.90
59977;DHT22;45837;51.076;3.578;2023-11-21T01:04:51;19.60;64.90
59977;DHT22;45837;51.076;3.578;2023-11-21T01:07:16;19.60;65.00
59977;DHT22;45837;51.076;3.578;2023-11-21T01:09:46;19.60;65.10
59977;DHT22;45837;51.076;3.578;2023-11-21T01:12:12;19.60;65.10
59977;DHT22;45837;51.076;3.578;2023-11-21T01:14:37;19.60;64.90
59977;DHT22;45837;51.076;3.578;2023-11-21T01:17:03;19.50;64.90
59977;DHT22;45837;51.076;3.578;2023-11-21T01:19:30;19.50;65.00
59977;DHT22;45837;51.076;3.578;2023-11-21T01:21:56;19.50;65.40
59977;DHT22;45837;51.076;3.578;2023-11-21T01:24:23;19.50;64.80
59977;DHT22;45837;51.076;3.578;2023-11-21T01:26:49;19.50;65.00
59977;DHT22;45837;51.076;3.578;2023-11-21T01:29:14;19.50;65.00
59977;DHT22;45837;51.076;3.578;2023-11-21T01:31:40;19.50;65.40
59977;DHT22;45837;51.076;3.578;2023-11-21T01:34:06;19.50;65.00
59977;DHT22;45837;51.076;3.578;2023-11-21T01:36:32;19.50;64.80
59977;DHT22;45837;51.076;3.578;2023-11-21T01:38:58;19.50;65.00
59977;DHT22;45837;51.076;3.578;2023-11-21T01:41:27;19.50;64.80
59977;DHT22;45837;51.076;3.578;2023-11-21T01:43:54;19.50;64.70
59977;DHT22;45837;51.076;3.578;2023-11-21T01:46:20;19.50;64.80
59977;DHT22;45837;51.076;3.578;2023-11-21T01:48:47;19.50;64.70
59977;DHT22;45837;51.076;3.578;2023-11-21T01:51:15;19.50;64.70
59977;DHT22;45837;51.076;3.578;2023-11-21T01:53:40;19.50;64.80
59977;DHT22;45837;51.076;3.578;2023-11-21T01:56:06;19.50;65.00
59977;DHT22;45837;51.076;3.578;2023-11-21T01:58:33;19.50;64.90
59977;DHT22;45837;51.076;3.578;2023-11-21T02:00:59;19.40;64.70
59977;DHT22;45837;51.076;3.578;2023-11-21T02:03:25;19.40;64.90
59977;DHT22;45837;51.076;3.578;2023-11-21T02:05:54;19.40;64.80
59977;DHT22;45837;51.076;3.578;2023-11-21T02:08:20;19.40;64.50
59977;DHT22;45837;51.076;3.578;2023-11-21T02:10:46;19.40;65.00
59977;DHT22;45837;51.076;3.578;2023-11-21T02:13:13;19.40;64.90
59977;DHT22;45837;51.076;3.578;2023-11-21T02:15:39;19.40;64.70
59977;DHT22;45837;51.076;3.578;2023-11-21T02:18:04;19.40;64.80
59977;DHT22;45837;51.076;3.578;2023-11-21T02:20:31;19.40;64.70
59977;DHT22;45837;51.076;3.578;2023-11-21T02:23:00;19.40;64.70
59977;DHT22;45837;51.076;3.578;2023-11-21T02:25:29;19.40;64.70
59977;DHT22;45837;51.076;3.578;2023-11-21T02:28:02;19.40;64.60
59977;DHT22;45837;51.076;3.578;2023-11-21T02:30:29;19.40;64.50
59977;DHT22;45837;51.076;3.578;2023-11-21T02:32:57;19.40;64.60
59977;DHT22;45837;51.076;3.578;2023-11-21T02:35:24;19.40;64.60
59977;DHT22;45837;51.076;3.578;2023-11-21T02:37:55;19.40;64.50
59977;DHT22;45837;51.076;3.578;2023-11-21T02:40:21;19.40;64.80
59977;DHT22;45837;51.076;3.578;2023-11-21T02:42:47;19.40;64.70
59977;DHT22;45837;51.076;3.578;2023-11-21T02:45:13;19.40;64.60
59977;DHT22;45837;51.076;3.578;2023-11-21T02:47:39;19.40;64.60
59977;DHT22;45837;51.076;3.578;2023-11-21T02:50:05;19.40;65.00
59977;DHT22;45837;51.076;3.578;2023-11-21T02:52:33;19.40;64.60
59977;DHT22;45837;51.076;3.578;2023-11-21T02:54:59;19.30;64.80
59977;DHT22;45837;51.076;3.578;2023-11-21T02:57:25;19.40;65.10
59977;DHT22;45837;51.076;3.578;2023-11-21T02:59:50;19.30;64.90
59977;DHT22;45837;51.076;3.578;2023-11-21T03:02:16;19.40;64.50
59977;DHT22;45837;51.076;3.578;2023-11-21T03:04:43;19.30;64.50
59977;DHT22;45837;51.076;3.578;2023-11-21T03:07:09;19.30;64.80
59977;DHT22;45837;51.076;3.578;2023-11-21T03:09:35;19.30;64.80
59977;DHT22;45837;51.076;3.578;2023-11-21T03:12:01;19.30;64.50
59977;DHT22;45837;51.076;3.578;2023-11-21T03:14:26;19.30;64.70
59977;DHT22;45837;51.076;3.578;2023-11-21T03:16:52;19.30;64.60
59977;DHT22;45837;51.076;3.578;2023-11-21T03:19:18;19.30;64.80
59977;DHT22;45837;51.076;3.578;2023-11-21T03:21:44;19.30;65.00
59977;DHT22;45837;51.076;3.578;2023-11-21T03:24:10;19.40;65.10
59977;DHT22;45837;51.076;3.578;2023-11-21T03:26:36;19.30;64.70
59977;DHT22;45837;51.076;3.578;2023-11-21T03:29:03;19.30;65.30
59977;DHT22;45837;51.076;3.578;2023-11-21T03:31:30;19.30;65.50
59977;DHT22;45837;51.076;3.578;2023-11-21T03:33:55;19.30;64.50
59977;DHT22;45837;51.076;3.578;2023-11-21T03:36:21;19.30;64.80
59977;DHT22;45837;51.076;3.578;2023-11-21T03:38:47;19.30;64.80
59977;DHT22;45837;51.076;3.578;2023-11-21T03:41:13;19.30;64.40
59977;DHT22;45837;51.076;3.578;2023-11-21T03:43:40;19.30;64.30
59977;DHT22;45837;51.076;3.578;2023-11-21T03:46:05;19.30;64.60
59977;DHT22;45837;51.076;3.578;2023-11-21T03:48:31;19.30;64.50
59977;DHT22;45837;51.076;3.578;2023-11-21T03:50:58;19.10;64.30
59977;DHT22;45837;51.076;3.578;2023-11-21T03:53:24;19.30;64.60
59977;DHT22;45837;51.076;3.578;2023-11-21T03:55:49;19.30;64.50
59977;DHT22;45837;51.076;3.578;2023-11-21T03:58:15;19.30;64.80
59977;DHT22;45837;51.076;3.578;2023-11-21T04:00:41;19.30;64.70
59977;DHT22;45837;51.076;3.578;2023-11-21T04:03:06;19.20;64.70
59977;DHT22;45837;51.076;3.578;2023-11-21T04:05:32;19.30;64.80
59977;DHT22;45837;51.076;3.578;2023-11-21T04:07:58;19.20;64.70
59977;DHT22;45837;51.076;3.578;2023-11-21T04:10:23;19.20;64.50
59977;DHT22;45837;51.076;3.578;2023-11-21T04:12:49;19.20;64.70
59977;DHT22;45837;51.076;3.578;2023-11-21T04:15:15;19.20;64.60
59977;DHT22;45837;51.076;3.578;2023-11-21T04:17:41;19.20;64.70
59977;DHT22;45837;51.076;3.578;2023-11-21T04:20:07;19.20;64.40
59977;DHT22;45837;51.076;3.578;2023-11-21T04:22:41;19.20;64.60
59977;DHT22;45837;51.076;3.578;2023-11-21T04:25:10;19.20;64.30
59977;DHT22;45837;51.076;3.578;2023-11-21T04:27:39;19.20;64.30
59977;DHT22;45837;51.076;3.578;2023-11-21T04:30:05;19.20;64.30
59977;DHT22;45837;51.076;3.578;2023-11-21T04:32:31;19.20;65.00
59977;DHT22;45837;51.076;3.578;2023-11-21T04:34:56;19.20;64.70
59977;DHT22;45837;51.076;3.578;2023-11-21T04:37:22;19.20;64.50
59977;DHT22;45837;51.076;3.578;2023-11-21T04:39:48;19.20;64.60
59977;DHT22;45837;51.076;3.578;2023-11-21T04:42:13;19.20;64.30
59977;DHT22;45837;51.076;3.578;2023-11-21T04:44:39;19.20;64.80
59977;DHT22;45837;51.076;3.578;2023-11-21T04:47:06;19.20;64.50
59977;DHT22;45837;51.076;3.578;2023-11-21T04:49:33;19.20;64.50
59977;DHT22;45837;51.076;3.578;2023-11-21T04:51:59;19.20;64.40
59977;DHT22;45837;51.076;3.578;2023-11-21T04:54:24;19.20;64.40
59977;DHT22;45837;51.076;3.578;2023-11-21T04:56:50;19.20;64.60
59977;DHT22;45837;51.076;3.578;2023-11-21T04:59:15;19.10;64.70
59977;DHT22;45837;51.076;3.578;2023-11-21T05:01:41;19.20;64.50
59977;DHT22;45837;51.076;3.578;2023-11-21T05:04:07;19.20;64.90
59977;DHT22;45837;51.076;3.578;2023-11-21T05:06:34;19.20;64.40
59977;DHT22;45837;51.076;3.578;2023-11-21T05:09:00;19.20;64.50
59977;DHT22;45837;51.076;3.578;2023-11-21T05:11:26;19.20;64.30
59977;DHT22;45837;51.076;3.578;2023-11-21T05:13:52;19.20;64.10
59977;DHT22;45837;51.076;3.578;2023-11-21T05:16:19;19.20;64.40
59977;DHT22;45837;51.076;3.578;2023-11-21T05:18:45;19.20;64.30
59977;DHT22;45837;51.076;3.578;2023-11-21T05:21:10;19.10;64.30
59977;DHT22;45837;51.076;3.578;2023-11-21T05:23:36;19.10;64.70
59977;DHT22;45837;51.076;3.578;2023-11-21T05:26:03;19.10;64.60
59977;DHT22;45837;51.076;3.578;2023-11-21T05:28:28;19.10;64.90
59977;DHT22;45837;51.076;3.578;2023-11-21T05:30:54;19.20;65.30
59977;DHT22;45837;51.076;3.578;2023-11-21T05:33:20;19.20;64.80
59977;DHT22;45837;51.076;3.578;2023-11-21T05:35:46;19.20;65.40
59977;DHT22;45837;51.076;3.578;2023-11-21T05:38:14;19.30;65.60
59977;DHT22;45837;51.076;3.578;2023-11-21T05:40:39;19.30;65.60
59977;DHT22;45837;51.076;3.578;2023-11-21T05:43:06;19.30;66.20
59977;DHT22;45837;51.076;3.578;2023-11-21T05:45:32;19.30;66.00
59977;DHT22;45837;51.076;3.578;2023-11-21T05:47:58;19.30;67.10
59977;DHT22;45837;51.076;3.578;2023-11-21T05:50:24;19.40;66.00
59977;DHT22;45837;51.076;3.578;2023-11-21T05:52:49;19.40;66.60
59977;DHT22;45837;51.076;3.578;2023-11-21T05:55:15;19.40;67.00
59977;DHT22;45837;51.076;3.578;2023-11-21T05:57:42;19.40;65.90
59977;DHT22;45837;51.076;3.578;2023-11-21T06:00:09;19.50;65.50
59977;DHT22;45837;51.076;3.578;2023-11-21T06:02:39;19.40;65.60
59977;DHT22;45837;51.076;3.578;2023-11-21T06:05:05;19.50;65.60
59977;DHT22;45837;51.076;3.578;2023-11-21T06:07:31;19.50;65.70
59977;DHT22;45837;51.076;3.578;2023-11-21T06:09:57;19.50;66.10
59977;DHT22;45837;51.076;3.578;2023-11-21T06:12:22;19.50;66.40
59977;DHT22;45837;51.076;3.578;2023-11-21T06:14:48;19.40;66.20
59977;DHT22;45837;51.076;3.578;2023-11-21T06:17:14;19.40;66.20
59977;DHT22;45837;51.076;3.578;2023-11-21T06:19:40;19.40;66.20
59977;DHT22;45837;51.076;3.578;2023-11-21T06:22:05;19.40;66.10
59977;DHT22;45837;51.076;3.578;2023-11-21T06:24:32;19.40;66.20
59977;DHT22;45837;51.076;3.578;2023-11-21T06:26:57;19.40;65.80
59977;DHT22;45837;51.076;3.578;2023-11-21T06:29:24;19.40;65.70
59977;DHT22;45837;51.076;3.578;2023-11-21T06:31:49;19.30;66.00
59977;DHT22;45837;51.076;3.578;2023-11-21T06:34:15;19.30;66.10
59977;DHT22;45837;51.076;3.578;2023-11-21T06:36:41;19.30;65.90
59977;DHT22;45837;51.076;3.578;2023-11-21T06:39:06;19.30;65.80
59977;DHT22;45837;51.076;3.578;2023-11-21T06:41:33;19.30;65.60
59977;DHT22;45837;51.076;3.578;2023-11-21T06:43:59;19.30;65.40
59977;DHT22;45837;51.076;3.578;2023-11-21T06:46:24;19.30;65.90
59977;DHT22;45837;51.076;3.578;2023-11-21T06:48:50;19.20;65.70
59977;DHT22;45837;51.076;3.578;2023-11-21T06:51:16;19.20;65.80
59977;DHT22;45837;51.076;3.578;2023-11-21T06:53:41;19.20;65.60
59977;DHT22;45837;51.076;3.578;2023-11-21T06:56:17;19.20;66.00
59977;DHT22;45837;51.076;3.578;2023-11-21T06:58:43;19.20;65.10
59977;DHT22;45837;51.076;3.578;2023-11-21T07:01:11;19.20;65.10
59977;DHT22;45837;51.076;3.578;2023-11-21T07:03:36;19.20;65.50
59977;DHT22;45837;51.076;3.578;2023-11-21T07:06:03;19.10;65.30
59977;DHT22;45837;51.076;3.578;2023-11-21T07:08:29;19.20;64.90
59977;DHT22;45837;51.076;3.578;2023-11-21T07:10:54;19.10;65.70
59977;DHT22;45837;51.076;3.578;2023-11-21T07:13:20;19.20;65.60
59977;DHT22;45837;51.076;3.578;2023-11-21T07:15:47;19.20;65.30
59977;DHT22;45837;51.076;3.578;2023-11-21T07:18:13;19.10;65.10
59977;DHT22;45837;51.076;3.578;2023-11-21T07:20:39;19.10;65.40
59977;DHT22;45837;51.076;3.578;2023-11-21T07:23:04;19.10;65.50
59977;DHT22;45837;51.076;3.578;2023-11-21T07:25:31;19.10;65.10
59977;DHT22;45837;51.076;3.578;2023-11-21T07:27:57;19.10;64.80
59977;DHT22;45837;51.076;3.578;2023-11-21T07:30:23;19.10;65.40
59977;DHT22;45837;51.076;3.578;2023-11-21T07:32:48;19.10;65.30
59977;DHT22;45837;51.076;3.578;2023-11-21T07:35:14;19.10;64.90
59977;DHT22;45837;51.076;3.578;2023-11-21T07:37:40;19.10;65.40
59977;DHT22;45837;51.076;3.578;2023-11-21T07:40:06;19.10;65.20
59977;DHT22;45837;51.076;3.578;2023-11-21T07:42:34;19.10;64.70
59977;DHT22;45837;51.076;3.578;2023-11-21T07:44:59;19.10;64.70
59977;DHT22;45837;51.076;3.578;2023-11-21T07:47:25;19.10;65.10
59977;DHT22;45837;51.076;3.578;2023-11-21T07:49:53;19.00;64.80
59977;DHT22;45837;51.076;3.578;2023-11-21T07:52:18;19.00;64.60
59977;DHT22;45837;51.076;3.578;2023-11-21T07:54:46;19.00;65.60
59977;DHT22;45837;51.076;3.578;2023-11-21T07:57:12;19.00;64.90
59977;DHT22;45837;51.076;3.578;2023-11-21T07:59:41;19.00;64.70
59977;DHT22;45837;51.076;3.578;2023-11-21T08:02:07;19.00;64.20
59977;DHT22;45837;51.076;3.578;2023-11-21T08:04:33;19.10;64.90
59977;DHT22;45837;51.076;3.578;2023-11-21T08:06:59;19.00;64.60
59977;DHT22;45837;51.076;3.578;2023-11-21T08:09:25;19.10;64.90
59977;DHT22;45837;51.076;3.578;2023-11-21T08:11:51;19.10;65.20
59977;DHT22;45837;51.076;3.578;2023-11-21T08:14:18;19.10;64.50
59977;DHT22;45837;51.076;3.578;2023-11-21T08:16:44;19.10;64.90
59977;DHT22;45837;51.076;3.578;2023-11-21T08:19:10;19.00;64.40
59977;DHT22;45837;51.076;3.578;2023-11-21T08:21:36;19.10;64.40
59977;DHT22;45837;51.076;3.578;2023-11-21T08:24:08;19.00;64.40
59977;DHT22;45837;51.076;3.578;2023-11-21T08:26:36;19.10;64.00
59977;DHT22;45837;51.076;3.578;2023-11-21T08:29:02;19.10;64.00
59977;DHT22;45837;51.076;3.578;2023-11-21T08:31:28;19.10;64.40
59977;DHT22;45837;51.076;3.578;2023-11-21T08:33:54;19.10;64.30
59977;DHT22;45837;51.076;3.578;2023-11-21T08:36:21;19.10;63.80
59977;DHT22;45837;51.076;3.578;2023-11-21T08:38:48;19.20;63.80
59977;DHT22;45837;51.076;3.578;2023-11-21T08:41:14;19.10;64.00
59977;DHT22;45837;51.076;3.578;2023-11-21T08:43:41;19.10;63.90
59977;DHT22;45837;51.076;3.578;2023-11-21T08:46:07;19.10;63.80
59977;DHT22;45837;51.076;3.578;2023-11-21T08:48:35;19.10;63.90
59977;DHT22;45837;51.076;3.578;2023-11-21T08:51:01;19.20;63.50
59977;DHT22;45837;51.076;3.578;2023-11-21T08:53:27;19.20;64.00
59977;DHT22;45837;51.076;3.578;2023-11-21T08:55:52;19.20;64.00
59977;DHT22;45837;51.076;3.578;2023-11-21T08:58:19;19.20;63.50
59977;DHT22;45837;51.076;3.578;2023-11-21T09:00:45;19.30;63.90
59977;DHT22;45837;51.076;3.578;2023-11-21T09:03:12;19.30;63.50
59977;DHT22;45837;51.076;3.578;2023-11-21T09:05:38;19.30;63.10
59977;DHT22;45837;51.076;3.578;2023-11-21T09:08:04;19.30;63.10
59977;DHT22;45837;51.076;3.578;2023-11-21T09:10:30;19.30;63.10
59977;DHT22;45837;51.076;3.578;2023-11-21T09:12:56;19.30;63.60
59977;DHT22;45837;51.076;3.578;2023-11-21T09:15:22;19.30;63.30
59977;DHT22;45837;51.076;3.578;2023-11-21T09:17:47;19.30;63.70
59977;DHT22;45837;51.076;3.578;2023-11-21T09:20:13;19.30;63.40
59977;DHT22;45837;51.076;3.578;2023-11-21T09:22:40;19.20;63.40
59977;DHT22;45837;51.076;3.578;2023-11-21T09:25:06;19.30;63.70
59977;DHT22;45837;51.076;3.578;2023-11-21T09:27:34;19.30;63.10
59977;DHT22;45837;51.076;3.578;2023-11-21T09:30:01;19.30;63.40
59977;DHT22;45837;51.076;3.578;2023-11-21T09:32:26;19.30;63.40
59977;DHT22;45837;51.076;3.578;2023-11-21T09:34:52;19.30;63.60
59977;DHT22;45837;51.076;3.578;2023-11-21T09:37:20;19.30;63.30
59977;DHT22;45837;51.076;3.578;2023-11-21T09:39:46;19.30;63.60
59977;DHT22;45837;51.076;3.578;2023-11-21T09:42:15;19.30;63.40
59977;DHT22;45837;51.076;3.578;2023-11-21T09:44:54;19.20;63.20
59977;DHT22;45837;51.076;3.578;2023-11-21T09:47:21;19.20;63.00
59977;DHT22;45837;51.076;3.578;2023-11-21T09:49:48;19.20;64.10
59977;DHT22;45837;51.076;3.578;2023-11-21T09:52:33;19.20;63.20
59977;DHT22;45837;51.076;3.578;2023-11-21T09:55:03;19.20;63.10
59977;DHT22;45837;51.076;3.578;2023-11-21T09:57:31;19.20;63.50
59977;DHT22;45837;51.076;3.578;2023-11-21T09:59:57;19.20;63.50
59977;DHT22;45837;51.076;3.578;2023-11-21T10:02:26;19.20;63.40
59977;DHT22;45837;51.076;3.578;2023-11-21T10:04:54;19.20;63.30
59977;DHT22;45837;51.076;3.578;2023-11-21T10:07:20;19.20;63.70
59977;DHT22;45837;51.076;3.578;2023-11-21T10:09:46;19.20;63.40
59977;DHT22;45837;51.076;3.578;2023-11-21T10:12:12;19.20;63.40
59977;DHT22;45837;51.076;3.578;2023-11-21T10:14:40;19.20;63.40
59977;DHT22;45837;51.076;3.578;2023-11-21T10:17:07;19.20;63.50
59977;DHT22;45837;51.076;3.578;2023-11-21T10:19:35;19.10;63.30
59977;DHT22;45837;51.076;3.578;2023-11-21T10:22:01;19.10;63.40
59977;DHT22;45837;51.076;3.578;2023-11-21T10:24:29;19.10;63.60
59977;DHT22;45837;51.076;3.578;2023-11-21T10:26:54;19.20;63.90
59977;DHT22;45837;51.076;3.578;2023-11-21T10:29:20;19.10;63.90
59977;DHT22;45837;51.076;3.578;2023-11-21T10:31:49;19.10;63.60
59977;DHT22;45837;51.076;3.578;2023-11-21T10:34:15;19.10;63.30
59977;DHT22;45837;51.076;3.578;2023-11-21T10:36:41;19.10;63.40
59977;DHT22;45837;51.076;3.578;2023-11-21T10:39:06;19.10;63.90
59977;DHT22;45837;51.076;3.578;2023-11-21T10:41:33;19.20;63.40
59977;DHT22;45837;51.076;3.578;2023-11-21T10:44:07;19.20;63.20
59977;DHT22;45837;51.076;3.578;2023-11-21T10:46:34;19.20;63.10
59977;DHT22;45837;51.076;3.578;2023-11-21T10:49:00;19.20;63.40
59977;DHT22;45837;51.076;3.578;2023-11-21T10:51:27;19.20;63.40
59977;DHT22;45837;51.076;3.578;2023-11-21T10:53:53;19.20;63.30
59977;DHT22;45837;51.076;3.578;2023-11-21T10:56:19;19.20;63.40
59977;DHT22;45837;51.076;3.578;2023-11-21T10:58:50;19.20;63.10
59977;DHT22;45837;51.076;3.578;2023-11-21T11:01:19;19.20;63.00
59977;DHT22;45837;51.076;3.578;2023-11-21T11:03:49;19.20;63.10
59977;DHT22;45837;51.076;3.578;2023-11-21T11:06:15;19.20;63.20
59977;DHT22;45837;51.076;3.578;2023-11-21T11:08:41;19.20;63.80
59977;DHT22;45837;51.076;3.578;2023-11-21T11:11:07;19.20;63.80
59977;DHT22;45837;51.076;3.578;2023-11-21T11:13:33;19.20;63.50
59977;DHT22;45837;51.076;3.578;2023-11-21T11:15:59;19.20;63.60
59977;DHT22;45837;51.076;3.578;2023-11-21T11:18:29;19.20;63.20
59977;DHT22;45837;51.076;3.578;2023-11-21T11:20:57;19.10;63.10
59977;DHT22;45837;51.076;3.578;2023-11-21T11:29:20;19.20;63.10
59977;DHT22;45837;51.076;3.578;2023-11-21T11:31:39;19.20;64.00
59977;DHT22;45837;51.076;3.578;2023-11-21T11:34:23;19.10;63.10
59977;DHT22;45837;51.076;3.578;2023-11-21T11:36:58;19.10;63.30
59977;DHT22;45837;51.076;3.578;2023-11-21T11:39:35;19.20;63.10
59977;DHT22;45837;51.076;3.578;2023-11-21T11:42:02;19.20;63.10
59977;DHT22;45837;51.076;3.578;2023-11-21T11:44:47;19.10;63.00
59977;DHT22;45837;51.076;3.578;2023-11-21T11:47:19;19.20;62.90
59977;DHT22;45837;51.076;3.578;2023-11-21T11:52:55;19.20;62.90
59977;DHT22;45837;51.076;3.578;2023-11-21T11:55:23;19.20;62.90
59977;DHT22;45837;51.076;3.578;2023-11-21T11:57:50;19.20;63.00
59977;DHT22;45837;51.076;3.578;2023-11-21T12:00:22;19.20;63.00
59977;DHT22;45837;51.076;3.578;2023-11-21T12:02:51;19.20;62.90
59977;DHT22;45837;51.076;3.578;2023-11-21T12:05:18;19.20;62.80
59977;DHT22;45837;51.076;3.578;2023-11-21T12:10:22;19.20;62.80
59977;DHT22;45837;51.076;3.578;2023-11-21T12:15:45;19.20;62.90
59977;DHT22;45837;51.076;3.578;2023-11-21T12:18:11;19.20;63.40
59977;DHT22;45837;51.076;3.578;2023-11-21T12:20:37;19.20;63.60
59977;DHT22;45837;51.076;3.578;2023-11-21T12:23:04;19.20;63.90
59977;DHT22;45837;51.076;3.578;2023-11-21T12:25:31;19.20;63.50
59977;DHT22;45837;51.076;3.578;2023-11-21T12:27:58;19.20;63.60
59977;DHT22;45837;51.076;3.578;2023-11-21T12:30:25;19.20;63.60
59977;DHT22;45837;51.076;3.578;2023-11-21T12:32:54;19.10;63.60
59977;DHT22;45837;51.076;3.578;2023-11-21T12:35:24;19.10;63.60
59977;DHT22;45837;51.076;3.578;2023-11-21T12:37:51;19.10;63.30
59977;DHT22;45837;51.076;3.578;2023-11-21T12:40:17;19.10;63.30
59977;DHT22;45837;51.076;3.578;2023-11-21T12:42:47;19.10;63.30
59977;DHT22;45837;51.076;3.578;2023-11-21T12:47:42;19.10;63.60
59977;DHT22;45837;51.076;3.578;2023-11-21T12:50:08;19.10;63.40
59977;DHT22;45837;51.076;3.578;2023-11-21T12:52:43;19.10;63.60
59977;DHT22;45837;51.076;3.578;2023-11-21T12:55:13;19.10;63.30
59977;DHT22;45837;51.076;3.578;2023-11-21T12:57:43;19.10;63.40
59977;DHT22;45837;51.076;3.578;2023-11-21T13:00:10;19.10;63.30
59977;DHT22;45837;51.076;3.578;2023-11-21T13:02:41;19.10;63.40
59977;DHT22;45837;51.076;3.578;2023-11-21T13:05:08;19.10;63.20
59977;DHT22;45837;51.076;3.578;2023-11-21T13:07:44;19.10;63.30
59977;DHT22;45837;51.076;3.578;2023-11-21T13:10:12;19.10;63.60
59977;DHT22;45837;51.076;3.578;2023-11-21T13:12:45;19.10;63.20
59977;DHT22;45837;51.076;3.578;2023-11-21T13:15:14;19.10;63.10
59977;DHT22;45837;51.076;3.578;2023-11-21T13:17:42;19.10;63.30
59977;DHT22;45837;51.076;3.578;2023-11-21T13:20:10;19.10;63.40
59977;DHT22;45837;51.076;3.578;2023-11-21T13:25:17;19.10;63.10
59977;DHT22;45837;51.076;3.578;2023-11-21T13:27:45;19.10;63.30
59977;DHT22;45837;51.076;3.578;2023-11-21T13:30:12;19.10;63.60
59977;DHT22;45837;51.076;3.578;2023-11-21T13:32:41;19.10;63.30
59977;DHT22;45837;51.076;3.578;2023-11-21T13:35:07;19.10;63.30
59977;DHT22;45837;51.076;3.578;2023-11-21T13:37:40;19.00;63.30
59977;DHT22;45837;51.076;3.578;2023-11-21T13:40:06;19.00;63.90
59977;DHT22;45837;51.076;3.578;2023-11-21T13:42:40;19.10;63.60
59977;DHT22;45837;51.076;3.578;2023-11-21T13:45:06;19.00;63.30
59977;DHT22;45837;51.076;3.578;2023-11-21T13:47:32;19.00;63.50
59977;DHT22;45837;51.076;3.578;2023-11-21T13:49:59;19.00;63.50
59977;DHT22;45837;51.076;3.578;2023-11-21T13:52:26;19.00;63.60
59977;DHT22;45837;51.076;3.578;2023-11-21T13:54:53;19.00;63.40
59977;DHT22;45837;51.076;3.578;2023-11-21T13:57:19;19.00;63.70
59977;DHT22;45837;51.076;3.578;2023-11-21T13:59:46;19.00;63.40
59977;DHT22;45837;51.076;3.578;2023-11-21T14:02:11;19.00;63.90
59977;DHT22;45837;51.076;3.578;2023-11-21T14:04:44;19.00;63.30
59977;DHT22;45837;51.076;3.578;2023-11-21T14:07:26;19.00;63.30
59977;DHT22;45837;51.076;3.578;2023-11-21T14:10:00;19.00;63.30
59977;DHT22;45837;51.076;3.578;2023-11-21T14:12:26;19.00;63.60
59977;DHT22;45837;51.076;3.578;2023-11-21T14:14:51;19.00;63.90
59977;DHT22;45837;51.076;3.578;2023-11-21T14:17:17;19.00;63.70
59977;DHT22;45837;51.076;3.578;2023-11-21T14:19:43;19.00;63.70
59977;DHT22;45837;51.076;3.578;2023-11-21T14:22:09;19.00;63.40
59977;DHT22;45837;51.076;3.578;2023-11-21T14:24:35;19.00;62.90
59977;DHT22;45837;51.076;3.578;2023-11-21T14:27:02;19.00;63.90
59977;DHT22;45837;51.076;3.578;2023-11-21T14:29:28;19.00;64.10
59977;DHT22;45837;51.076;3.578;2023-11-21T14:31:55;19.00;64.10
59977;DHT22;45837;51.076;3.578;2023-11-21T14:34:23;19.00;64.70
59977;DHT22;45837;51.076;3.578;2023-11-21T14:36:49;19.00;64.50
59977;DHT22;45837;51.076;3.578;2023-11-21T14:39:15;19.00;64.20
59977;DHT22;45837;51.076;3.578;2023-11-21T14:41:52;19.00;64.40
59977;DHT22;45837;51.076;3.578;2023-11-21T14:44:19;19.00;64.60
59977;DHT22;45837;51.076;3.578;2023-11-21T14:46:46;19.00;65.20
59977;DHT22;45837;51.076;3.578;2023-11-21T14:49:12;19.00;65.90
59977;DHT22;45837;51.076;3.578;2023-11-21T14:51:48;19.10;65.50
59977;DHT22;45837;51.076;3.578;2023-11-21T14:54:29;19.10;65.80
59977;DHT22;45837;51.076;3.578;2023-11-21T14:57:12;19.10;65.90
59977;DHT22;45837;51.076;3.578;2023-11-21T14:59:43;19.20;65.90
59977;DHT22;45837;51.076;3.578;2023-11-21T15:02:09;19.30;65.50
59977;DHT22;45837;51.076;3.578;2023-11-21T15:04:41;19.30;65.60
59977;DHT22;45837;51.076;3.578;2023-11-21T15:07:08;19.40;65.80
59977;DHT22;45837;51.076;3.578;2023-11-21T15:09:34;19.50;65.70
59977;DHT22;45837;51.076;3.578;2023-11-21T15:12:00;19.60;66.20
59977;DHT22;45837;51.076;3.578;2023-11-21T15:14:47;19.70;65.50
59977;DHT22;45837;51.076;3.578;2023-11-21T15:17:15;19.80;65.40
59977;DHT22;45837;51.076;3.578;2023-11-21T15:19:48;19.90;65.00
59977;DHT22;45837;51.076;3.578;2023-11-21T15:22:14;20.00;65.40
59977;DHT22;45837;51.076;3.578;2023-11-21T15:24:41;20.10;65.00
59977;DHT22;45837;51.076;3.578;2023-11-21T15:27:08;20.10;64.10
59977;DHT22;45837;51.076;3.578;2023-11-21T15:29:34;20.20;63.60
59977;DHT22;45837;51.076;3.578;2023-11-21T15:32:00;20.30;64.00
59977;DHT22;45837;51.076;3.578;2023-11-21T15:34:26;20.30;63.40
59977;DHT22;45837;51.076;3.578;2023-11-21T15:36:53;20.30;63.30
59977;DHT22;45837;51.076;3.578;2023-11-21T15:39:20;20.30;63.40
59977;DHT22;45837;51.076;3.578;2023-11-21T15:41:47;20.40;63.20
59977;DHT22;45837;51.076;3.578;2023-11-21T15:44:13;20.40;63.40
59977;DHT22;45837;51.076;3.578;2023-11-21T15:46:39;20.30;63.30
59977;DHT22;45837;51.076;3.578;2023-11-21T15:49:07;20.30;63.10